Tropical Cyclones
[Index]
Main Index Home Page Stock Weather Photos Extreme Storms Discussion Storm News and Storm Chasing Reports Tropical Cyclones / Hurricanes / Typhoons Weather Data and Links Wild Fires / Bushfires Weather Observation Techniques Weather Picture Catalogue Tornado Pictures and Reports Stock Video Footage and DVDs for sale
Season 2002-2003 Tropical Cyclone BOURA Track Map
Season 2002-2003 Summaries: [BoM-AU] [JTWC-AU] [JTWC-SIO] [JTWC-SPAC] [JTWC-SH]
<<- Previous TC | JTWC 2002-2003 Season | Next TC ->>

click for intensity scale information  Lat/long Grid: Show Hide

 Date Labels: Show Hide

Joint Typhoon Warning Centre Cyclone Data

Name: BOURA

14 Nov 2002 18:00 UTC to 25 Nov 2002 12:00 UTC

    date/time    lat    long     hPa   cat  kts
2002-11-14 18    6.3    77.7    1002         25          
2002-11-15 00    7.2    77.2    1002         25          
2002-11-15 06    8.1    76.7    1000         30          
2002-11-15 12    8.8    75.8     997         35          
2002-11-15 18    9.4    75.0     994    1    40          
2002-11-16 00    9.9    74.1     994    1    40          
2002-11-16 06   10.4    73.3     994    1    40          
2002-11-16 12   10.8    72.5     991    1    45          
2002-11-16 18   11.3    71.5     991    1    45          
2002-11-17 00   11.6    70.4     984    2    55          
2002-11-17 06   12.1    69.5     976    2    65          
2002-11-17 12   12.7    68.8     976    2    65          
2002-11-17 18   13.1    68.2     967    3    75          
2002-11-18 00   13.4    67.5     967    3    75          
2002-11-18 06   13.6    66.5     967    3    75          
2002-11-18 12   13.7    65.5     967    3    75          
2002-11-18 18   13.7    64.7     967    3    75          
2002-11-19 00   13.7    63.8     967    3    75          
2002-11-19 06   13.8    62.8     967    3    75          
2002-11-19 12   14.4    62.0     967    3    75          
2002-11-19 18   14.8    61.0     967    3    75          
2002-11-20 00   15.0    59.9     967    3    75          
2002-11-20 06   15.4    59.1     967    3    75          
2002-11-20 12   15.6    58.3     967    3    75          
2002-11-20 18   15.7    57.6     976    2    65          
2002-11-21 00   15.5    56.8     984    2    55          
2002-11-21 06   15.2    56.0     987    1    50          
2002-11-21 12   14.8    55.4     991    1    45          
2002-11-21 18   14.3    54.8     994    1    40          
2002-11-22 00   13.8    54.2     997         35          
2002-11-22 06   13.2    53.6     997         35          
2002-11-22 12   12.8    53.0     997         35          
2002-11-22 18   12.3    52.3    1000         30          
2002-11-23 00   11.7    51.7    1000         30          
2002-11-23 06   11.0    51.3    1000         30          
2002-11-23 12   10.5    51.0    1002         25          
2002-11-23 18   10.1    50.9    1002         25          
2002-11-24 00    9.5    50.9    1002         25          
2002-11-24 06    9.1    50.8    1002         25          
2002-11-24 12    8.7    50.3    1002         25          
2002-11-24 18    8.4    49.7    1002         25          
2002-11-25 00    8.1    49.2    1002         25          
2002-11-25 06    7.8    48.7    1006         25          
2002-11-25 12    7.5    48.3    1002         25          
Winds are 1-min average.

Tropical cyclone tracks developed by Michael Bath using data from the Joint Typhoon Warning Centre Best Tracks and Google Maps.


[Australian Severe Weather index] [Copyright Notice] [Email Contacts] [Search This Site] [Privacy Policy]
Document: tropical_cyclone_boura.htm Updated: 28 June 2017